Time;durP1;ratioP1;P1;durP2;ratioP2;P2;SDS_P1;SDS_P2;PMS_P1;PMS_P2;Temp;Humidity;BMP_temperature;BMP_pressure;BME280_temperature;BME280_humidity;BME280_pressure;Samples;Min_cycle;Max_cycle;Signal;HPM_P1;HPM_P2
2024/01/09 00:00:29;;;;;;;14.02;12.63;;;;;;;5.92;100.00;99779.91;4966851;28;20085;-84
2024/01/09 00:02:54;;;;;;;14.30;12.35;;;;;;;5.89;100.00;99780.09;4986258;28;20109;-83
2024/01/09 00:05:20;;;;;;;15.30;13.32;;;;;;;5.89;100.00;99787.97;4980964;28;20058;-84
2024/01/09 00:07:45;;;;;;;14.65;13.15;;;;;;;5.88;100.00;99783.69;4982630;28;20069;-84
2024/01/09 00:10:11;;;;;;;14.20;12.77;;;;;;;5.87;100.00;99787.25;4985860;28;20122;-84
2024/01/09 00:12:36;;;;;;;17.38;13.10;;;;;;;5.84;100.00;99790.03;4983539;28;20046;-84
2024/01/09 00:15:04;;;;;;;14.98;13.43;;;;;;;5.82;100.00;99789.31;4984686;28;20023;-84
2024/01/09 00:17:29;;;;;;;15.20;12.85;;;;;;;5.83;100.00;99788.38;4986116;28;20390;-85
2024/01/09 00:19:55;;;;;;;14.15;12.68;;;;;;;5.82;100.00;99788.47;4984333;28;20035;-85
2024/01/09 00:22:21;;;;;;;13.60;12.23;;;;;;;5.80;100.00;99780.72;4983857;28;20026;-84
2024/01/09 00:24:46;;;;;;;16.90;13.07;;;;;;;5.79;100.00;99789.53;4981620;28;20034;-84
2024/01/09 00:27:12;;;;;;;15.20;12.93;;;;;;;5.80;100.00;99785.97;4984307;28;20059;-84
2024/01/09 00:29:37;;;;;;;13.50;12.07;;;;;;;5.81;100.00;99787.63;4981813;28;20113;-84
2024/01/09 00:32:03;;;;;;;13.02;11.70;;;;;;;5.82;100.00;99793.72;4985084;28;20475;-84
2024/01/09 00:34:28;;;;;;;14.32;11.68;;;;;;;5.83;100.00;99795.41;4956287;28;20035;-85
2024/01/09 00:36:54;;;;;;;13.75;11.52;;;;;;;5.84;100.00;99787.41;4951820;28;20114;-82
2024/01/09 00:39:19;;;;;;;14.77;12.57;;;;;;;5.85;100.00;99794.31;4952884;28;20078;-83
2024/01/09 00:41:45;;;;;;;13.00;11.65;;;;;;;5.86;100.00;99795.16;4947399;28;20055;-84
2024/01/09 00:44:10;;;;;;;12.98;11.60;;;;;;;5.87;100.00;99792.47;4953217;28;20031;-83
2024/01/09 00:46:37;;;;;;;12.68;11.27;;;;;;;5.91;100.00;99806.19;4952986;28;20035;-84
2024/01/09 00:49:03;;;;;;;14.85;12.57;;;;;;;5.91;100.00;99803.56;4953983;28;20043;-84
2024/01/09 00:51:29;;;;;;;13.23;11.88;;;;;;;5.94;100.00;99801.59;4953713;28;20023;-85
2024/01/09 00:53:55;;;;;;;14.40;11.68;;;;;;;5.96;100.00;99802.31;4952835;28;20042;-85
2024/01/09 00:56:21;;;;;;;13.65;12.35;;;;;;;5.97;100.00;99808.38;4953291;28;20102;-86
2024/01/09 00:58:46;;;;;;;12.98;11.63;;;;;;;5.96;100.00;99812.78;4953317;28;20050;-84
2024/01/09 01:01:12;;;;;;;14.02;12.18;;;;;;;5.94;100.00;99819.94;4953255;28;20028;-82
2024/01/09 01:03:37;;;;;;;15.15;11.90;;;;;;;5.96;100.00;99820.63;4952996;28;20055;-83
2024/01/09 01:06:03;;;;;;;13.18;11.32;;;;;;;5.97;100.00;99819.69;4952841;28;20476;-84
2024/01/09 01:08:29;;;;;;;12.45;11.15;;;;;;;5.96;100.00;99828.50;4952729;28;20137;-85
2024/01/09 01:10:54;;;;;;;13.82;12.43;;;;;;;5.93;100.00;99822.66;4954497;28;20028;-85
2024/01/09 01:13:20;;;;;;;14.63;12.05;;;;;;;5.86;100.00;99827.44;4952748;28;20054;-83
2024/01/09 01:15:45;;;;;;;13.48;12.10;;;;;;;5.82;100.00;99831.22;4953279;28;20492;-84
2024/01/09 01:18:11;;;;;;;18.83;13.23;;;;;;;5.84;100.00;99833.72;4953684;28;20039;-84
2024/01/09 01:20:36;;;;;;;13.98;11.82;;;;;;;5.83;100.00;99832.06;4953279;28;20471;-85
2024/01/09 01:23:02;;;;;;;15.48;12.10;;;;;;;5.78;100.00;99830.56;4958416;28;20475;-85
2024/01/09 01:25:27;;;;;;;12.93;11.63;;;;;;;5.76;100.00;99839.50;4944769;29;20102;-85
2024/01/09 01:27:53;;;;;;;15.50;12.43;;;;;;;5.75;100.00;99835.19;4955240;28;20031;-83
2024/01/09 01:30:18;;;;;;;13.98;12.18;;;;;;;5.76;100.00;99842.13;4956976;28;20518;-85
2024/01/09 01:32:44;;;;;;;12.57;11.27;;;;;;;5.76;100.00;99842.13;4978563;28;20538;-84
2024/01/09 01:35:10;;;;;;;12.65;10.95;;;;;;;5.72;100.00;99851.09;5003282;28;20099;-84
2024/01/09 01:37:36;;;;;;;14.20;11.32;;;;;;;5.72;100.00;99859.78;5004195;28;20023;-84
2024/01/09 01:40:03;;;;;;;13.13;10.63;;;;;;;5.58;100.00;99859.06;5005357;28;20050;-86
2024/01/09 01:42:28;;;;;;;12.75;11.32;;;;;;;5.58;100.00;99853.84;4996075;28;20030;-84
2024/01/09 01:44:54;;;;;;;12.73;11.43;;;;;;;5.65;100.00;99861.19;4976072;28;20459;-85
2024/01/09 01:47:20;;;;;;;12.45;11.25;;;;;;;5.70;100.00;99864.31;4983616;28;20528;-87
2024/01/09 01:49:45;;;;;;;12.10;10.88;;;;;;;5.75;100.00;99862.22;4981834;28;20034;-84
2024/01/09 01:52:11;;;;;;;12.15;10.32;;;;;;;5.76;100.00;99868.31;4969392;28;20487;-83
2024/01/09 01:54:39;;;;;;;12.90;10.98;;;;;;;5.73;100.00;99869.34;4989826;28;20483;-83
2024/01/09 01:57:06;;;;;;;12.25;10.65;;;;;;;5.72;100.00;99870.28;4988046;28;20034;-83
2024/01/09 01:59:34;;;;;;;12.93;11.00;;;;;;;5.74;100.00;99867.56;4979701;28;20031;-84
2024/01/09 02:02:02;;;;;;;11.13;10.13;;;;;;;5.71;100.00;99865.16;4982932;28;20062;-84
2024/01/09 02:04:28;;;;;;;11.35;10.13;;;;;;;5.71;100.00;99873.03;4982558;28;20039;-84
2024/01/09 02:06:54;;;;;;;11.15;10.15;;;;;;;5.71;100.00;99873.03;4961406;28;20098;-83
2024/01/09 02:09:21;;;;;;;12.02;10.85;;;;;;;5.71;100.00;99865.97;4986614;28;20333;-84
2024/01/09 02:11:48;;;;;;;10.70;9.75;;;;;;;5.72;100.00;99872.91;4985050;28;20027;-84
2024/01/09 02:14:14;;;;;;;11.60;10.40;;;;;;;5.73;100.00;99868.50;4987597;28;20038;-83
2024/01/09 02:16:40;;;;;;;10.55;9.55;;;;;;;5.73;100.00;99868.50;4985693;28;20046;-84
2024/01/09 02:19:05;;;;;;;11.15;9.98;;;;;;;5.73;100.00;99866.72;4986260;28;20486;-85
2024/01/09 02:21:31;;;;;;;11.45;10.35;;;;;;;5.75;100.00;99866.63;4963272;28;20031;-83
2024/01/09 02:23:56;;;;;;;11.18;10.07;;;;;;;5.76;100.00;99870.91;4987639;28;20561;-84
2024/01/09 02:26:29;;;;;;;10.63;9.68;;;;;;;5.75;100.00;99870.09;4986633;28;20117;-84
2024/01/09 02:28:58;;;;;;;11.60;10.60;;;;;;;5.74;100.00;99870.19;4967824;28;20061;-84
2024/01/09 02:31:25;;;;;;;11.85;10.65;;;;;;;5.71;100.00;99870.41;4964057;28;20050;-85
2024/01/09 02:33:50;;;;;;;11.57;10.57;;;;;;;5.68;100.00;99873.22;4964690;28;20526;-84
2024/01/09 02:36:16;;;;;;;12.50;10.43;;;;;;;5.67;100.00;99871.53;4955022;28;20031;-84
2024/01/09 02:38:43;;;;;;;11.85;10.68;;;;;;;5.67;100.00;99871.53;4954023;28;20020;-85
2024/01/09 02:41:08;;;;;;;11.30;10.18;;;;;;;5.66;100.00;99875.09;4960229;29;20050;-83
2024/01/09 02:43:34;;;;;;;11.60;10.45;;;;;;;5.68;100.00;99881.06;4963656;28;20027;-84
2024/01/09 02:45:59;;;;;;;12.75;11.55;;;;;;;5.71;100.00;99876.44;4960614;28;20506;-85
2024/01/09 02:48:25;;;;;;;13.13;11.82;;;;;;;5.64;100.00;99874.38;4962280;29;20050;-84
2024/01/09 02:50:50;;;;;;;11.98;10.82;;;;;;;5.66;100.00;99877.69;4956216;29;20475;-85
2024/01/09 02:53:16;;;;;;;12.18;10.43;;;;;;;5.68;100.00;99881.06;4954641;28;20538;-83
2024/01/09 02:55:41;;;;;;;11.57;10.38;;;;;;;5.63;100.00;99875.31;4954595;28;20035;-84
2024/01/09 02:58:07;;;;;;;13.07;10.98;;;;;;;5.53;100.00;99882.13;4954041;28;20039;-84
2024/01/09 03:00:33;;;;;;;13.65;12.30;;;;;;;5.44;100.00;99874.84;4957016;28;20050;-84
2024/01/09 03:02:58;;;;;;;13.48;11.20;;;;;;;5.39;100.00;99876.94;4953233;29;20037;-85
2024/01/09 03:05:24;;;;;;;13.45;12.05;;;;;;;5.38;100.00;99883.13;4953188;29;20116;-83
2024/01/09 03:07:49;;;;;;;19.75;12.32;;;;;;;5.35;100.00;99885.03;4962257;28;20035;-83
2024/01/09 03:10:15;;;;;;;14.57;13.10;;;;;;;5.38;100.00;99883.13;4975634;28;20023;-84
2024/01/09 03:12:40;;;;;;;14.27;12.63;;;;;;;5.44;100.00;99890.56;4971815;28;20054;-84
2024/01/09 03:15:06;;;;;;;15.95;13.65;;;;;;;5.42;100.00;99882.00;4968806;28;20031;-83
2024/01/09 03:17:32;;;;;;;14.57;13.05;;;;;;;5.48;100.00;99884.22;4975367;28;20031;-84
2024/01/09 03:19:58;;;;;;;16.27;13.52;;;;;;;5.50;100.00;99892.78;4973796;29;20054;-83
2024/01/09 03:22:24;;;;;;;14.88;13.27;;;;;;;5.54;100.00;99889.00;4972749;28;20042;-84
2024/01/09 03:24:50;;;;;;;15.18;13.25;;;;;;;5.56;100.00;99893.19;4974160;28;20142;-84
2024/01/09 03:27:15;;;;;;;14.20;12.70;;;;;;;5.53;100.00;99887.34;4973453;28;20031;-84
2024/01/09 03:29:41;;;;;;;14.98;13.50;;;;;;;5.50;100.00;99887.53;4973107;28;20043;-83
2024/01/09 03:32:06;;;;;;;14.40;12.88;;;;;;;5.47;100.00;99893.00;4975956;28;20020;-83
2024/01/09 03:34:32;;;;;;;14.10;12.77;;;;;;;5.44;100.00;99887.94;4976943;28;20102;-85
2024/01/09 03:36:57;;;;;;;15.75;13.45;;;;;;;5.39;100.00;99897.88;4975989;28;20019;-84
2024/01/09 03:39:23;;;;;;;15.38;12.68;;;;;;;5.39;100.00;99895.28;4976128;28;20031;-85
2024/01/09 03:41:49;;;;;;;14.52;13.02;;;;;;;5.36;100.00;99891.91;4962591;29;20058;-85
2024/01/09 03:44:14;;;;;;;14.07;12.23;;;;;;;5.34;100.00;99899.03;4966541;28;20037;-85
2024/01/09 03:46:40;;;;;;;13.93;12.63;;;;;;;5.29;100.00;99890.66;4975438;28;20011;-84
2024/01/09 03:49:05;;;;;;;15.52;13.02;;;;;;;5.31;100.00;99894.00;4976639;29;20058;-85
2024/01/09 03:51:31;;;;;;;15.25;13.15;;;;;;;5.32;100.00;99905.28;4976908;28;20027;-85
2024/01/09 03:53:57;;;;;;;13.95;12.57;;;;;;;5.27;100.00;99895.16;4975767;28;20043;-85
2024/01/09 03:56:24;;;;;;;16.30;12.73;;;;;;;5.24;100.00;99897.94;4970829;28;20033;-85
2024/01/09 03:58:51;;;;;;;16.20;12.88;;;;;;;5.20;100.00;99906.94;4962003;28;20043;-83
2024/01/09 04:01:16;;;;;;;14.13;12.55;;;;;;;5.17;100.00;99912.38;4955796;29;20039;-84
2024/01/09 04:03:42;;;;;;;14.02;12.70;;;;;;;5.16;100.00;99915.94;4955264;29;20317;-84
2024/01/09 04:06:08;;;;;;;16.08;13.20;;;;;;;5.14;100.00;99915.19;4954954;28;20090;-84
2024/01/09 04:08:34;;;;;;;14.50;12.98;;;;;;;5.07;100.00;99916.53;4954110;29;20547;-84
2024/01/09 04:11:03;;;;;;;14.43;12.38;;;;;;;5.12;100.00;99932.78;4955933;28;20447;-85
2024/01/09 04:13:28;;;;;;;14.40;12.82;;;;;;;5.14;100.00;99928.28;4937656;29;20446;-85
2024/01/09 04:15:54;;;;;;;13.32;11.93;;;;;;;5.18;100.00;99919.31;4953785;29;20075;-85
2024/01/09 04:18:20;;;;;;;14.15;11.77;;;;;;;5.23;100.00;99922.47;4954631;28;20023;-83
2024/01/09 04:20:46;;;;;;;12.80;11.52;;;;;;;5.24;100.00;99931.97;4949600;28;20090;-84
2024/01/09 04:23:11;;;;;;;18.60;12.60;;;;;;;5.26;100.00;99926.63;4953997;28;20039;-83
2024/01/09 04:25:37;;;;;;;13.50;12.20;;;;;;;5.25;100.00;99928.41;4953113;28;20039;-85
2024/01/09 04:28:03;;;;;;;13.10;11.90;;;;;;;5.30;100.00;99933.38;4954003;29;20037;-83
2024/01/09 04:30:28;;;;;;;13.02;11.55;;;;;;;5.34;100.00;99935.66;4964881;28;20563;-83
2024/01/09 04:32:53;;;;;;;13.88;12.25;;;;;;;5.38;100.00;99940.69;4965636;28;20047;-84
2024/01/09 04:35:19;;;;;;;13.18;11.88;;;;;;;5.41;100.00;99943.13;4986670;28;20472;-84
2024/01/09 04:37:46;;;;;;;12.85;11.60;;;;;;;5.41;100.00;99945.75;4982104;28;20027;-84
2024/01/09 04:40:11;;;;;;;13.43;12.23;;;;;;;5.43;100.00;99943.84;4981072;28;20125;-83
2024/01/09 04:42:37;;;;;;;12.35;11.25;;;;;;;5.42;100.00;99948.22;4985935;28;20110;-84
2024/01/09 04:45:02;;;;;;;12.93;11.73;;;;;;;5.42;100.00;99950.03;4987664;28;20437;-84
2024/01/09 04:47:28;;;;;;;13.77;11.52;;;;;;;5.44;100.00;99942.91;4984376;28;20448;-84
2024/01/09 04:49:54;;;;;;;12.75;11.45;;;;;;;5.43;100.00;99946.47;4983202;28;20761;-85
2024/01/09 04:52:20;;;;;;;14.00;12.65;;;;;;;5.45;100.00;99947.22;4986468;28;20022;-85
2024/01/09 04:54:45;;;;;;;17.60;15.55;;;;;;;5.43;100.00;99949.06;4969855;28;20109;-84
2024/01/09 04:57:11;;;;;;;18.02;15.63;;;;;;;5.45;100.00;99952.44;4965412;28;20539;-84
2024/01/09 04:59:36;;;;;;;21.30;17.67;;;;;;;5.44;100.00;99951.59;4982193;28;20045;-84
2024/01/09 05:02:02;;;;;;;18.25;14.82;;;;;;;5.45;100.00;99955.06;4981662;28;20027;-82
2024/01/09 05:04:31;;;;;;;15.00;13.48;;;;;;;5.44;100.00;99954.22;4985094;28;20023;-83
2024/01/09 05:06:57;;;;;;;15.20;13.75;;;;;;;5.43;100.00;99949.91;4979633;28;20033;-84
2024/01/09 05:09:23;;;;;;;14.80;13.27;;;;;;;5.45;100.00;99961.13;4988574;28;20390;-85
2024/01/09 05:11:49;;;;;;;14.60;12.27;;;;;;;5.46;100.00;99969.81;4983402;28;20070;-83
2024/01/09 05:14:15;;;;;;;14.93;13.52;;;;;;;5.48;100.00;99967.97;4986561;28;20054;-83
2024/01/09 05:16:40;;;;;;;14.45;12.60;;;;;;;5.50;100.00;99966.06;4982821;28;20026;-83
2024/01/09 05:19:06;;;;;;;14.23;12.75;;;;;;;5.52;100.00;99962.41;4983403;28;20392;-84
2024/01/09 05:21:31;;;;;;;14.73;13.20;;;;;;;5.56;100.00;99970.91;4984356;28;20113;-85
2024/01/09 05:23:57;;;;;;;14.95;13.35;;;;;;;5.59;100.00;99975.94;4987893;28;20375;-85
2024/01/09 05:26:22;;;;;;;15.23;12.98;;;;;;;5.60;100.00;99977.59;4967063;28;20039;-83
2024/01/09 05:28:48;;;;;;;14.20;12.68;;;;;;;5.63;100.00;99977.41;4985874;28;20030;-83
2024/01/09 05:31:14;;;;;;;13.13;11.93;;;;;;;5.65;100.00;99976.38;4965771;28;20060;-84
2024/01/09 05:33:42;;;;;;;15.80;12.77;;;;;;;5.68;100.00;99975.31;4973117;28;20046;-83
2024/01/09 05:36:08;;;;;;;15.02;12.80;;;;;;;5.68;100.00;99972.69;4985723;28;20387;-83
2024/01/09 05:38:33;;;;;;;15.07;12.55;;;;;;;5.68;100.00;99978.78;4984395;28;20046;-85
2024/01/09 05:41:00;;;;;;;13.90;12.38;;;;;;;5.71;100.00;99975.94;4988355;28;20031;-84
2024/01/09 05:43:26;;;;;;;15.80;13.02;;;;;;;5.72;100.00;99982.88;4988381;28;20026;-84
2024/01/09 05:45:52;;;;;;;15.85;13.38;;;;;;;5.72;100.00;99989.88;4990103;28;20091;-84
2024/01/09 05:48:17;;;;;;;13.82;12.38;;;;;;;5.72;100.00;99987.25;4985465;28;20062;-84
2024/01/09 05:50:43;;;;;;;16.50;12.55;;;;;;;5.72;100.00;99992.50;4984553;28;20406;-83
2024/01/09 05:53:08;;;;;;;14.98;13.45;;;;;;;5.72;100.00;100000.34;4983201;28;20046;-84
2024/01/09 05:55:34;;;;;;;15.50;12.95;;;;;;;5.71;100.00;100002.13;4979943;28;20120;-84
2024/01/09 05:58:00;;;;;;;14.10;12.60;;;;;;;5.70;100.00;100002.25;4989024;28;20440;-85
2024/01/09 06:00:26;;;;;;;16.05;14.07;;;;;;;5.70;100.00;99997.00;4986990;28;20093;-83
2024/01/09 06:02:51;;;;;;;15.00;12.77;;;;;;;5.70;100.00;100010.94;4987482;28;20030;-85
2024/01/09 06:05:17;;;;;;;18.48;13.40;;;;;;;5.73;100.00;100012.50;4984407;28;20074;-75
2024/01/09 06:07:43;;;;;;;15.27;12.38;;;;;;;5.72;100.00;100009.06;4984561;28;20026;-76
2024/01/09 06:10:09;;;;;;;14.20;12.30;;;;;;;5.73;100.00;100009.91;4982666;28;20074;-78
2024/01/09 06:12:36;;;;;;;14.75;12.20;;;;;;;5.74;100.00;100016.81;4983611;28;20442;-78
2024/01/09 06:15:03;;;;;;;15.70;13.25;;;;;;;5.76;100.00;100012.31;4964390;28;20038;-75
2024/01/09 06:17:29;;;;;;;15.98;12.07;;;;;;;5.79;100.00;100019.97;4960383;28;20037;-75
2024/01/09 06:19:54;;;;;;;15.50;11.52;;;;;;;5.79;100.00;100019.97;4985795;28;20035;-75
2024/01/09 06:22:20;;;;;;;16.67;12.65;;;;;;;5.81;100.00;100023.34;4985447;28;20026;-77
2024/01/09 06:24:45;;;;;;;14.77;12.27;;;;;;;5.82;100.00;100025.00;4984070;28;20070;-79
2024/01/09 06:27:11;;;;;;;14.88;12.23;;;;;;;5.84;100.00;100027.50;4968738;28;20038;-77
2024/01/09 06:29:37;;;;;;;15.52;11.35;;;;;;;5.83;100.00;100026.69;4986068;28;20030;-74
2024/01/09 06:32:03;;;;;;;13.05;11.02;;;;;;;5.83;100.00;100029.31;4983238;28;20058;-75
2024/01/09 06:34:29;;;;;;;16.10;11.55;;;;;;;5.84;100.00;100027.50;4983702;28;20099;-77
2024/01/09 06:36:55;;;;;;;13.00;10.57;;;;;;;5.84;100.00;100033.59;4972181;28;20070;-76
2024/01/09 06:39:23;;;;;;;15.93;11.43;;;;;;;5.84;100.00;100038.81;4984687;28;20073;-78
2024/01/09 06:41:49;;;;;;;14.70;10.80;;;;;;;5.82;100.00;100040.72;4967758;28;20031;-77
2024/01/09 06:44:15;;;;;;;11.85;10.65;;;;;;;5.83;100.00;100039.78;4966769;28;20117;-77
2024/01/09 06:46:40;;;;;;;13.40;10.07;;;;;;;5.84;100.00;100044.06;4985644;28;20339;-76
2024/01/09 06:49:06;;;;;;;13.07;11.60;;;;;;;5.83;100.00;100047.66;4984016;28;20030;-77
2024/01/09 06:51:31;;;;;;;11.35;10.20;;;;;;;5.83;100.00;100047.66;4981394;28;20069;-77
2024/01/09 06:53:57;;;;;;;13.45;10.40;;;;;;;5.81;100.00;100049.53;4984010;28;20045;-77
2024/01/09 06:56:23;;;;;;;14.15;11.65;;;;;;;5.80;100.00;100042.59;4982699;28;20394;-77
2024/01/09 06:58:48;;;;;;;14.55;10.57;;;;;;;5.79;100.00;100046.16;4983679;28;20062;-78
2024/01/09 07:01:14;;;;;;;16.45;10.55;;;;;;;5.77;100.00;100048.06;4984221;28;20356;-77
2024/01/09 07:03:39;;;;;;;14.63;10.35;;;;;;;5.73;100.00;100051.78;4983384;28;20050;-77
2024/01/09 07:06:06;;;;;;;17.30;10.00;;;;;;;5.73;100.00;100057.03;4988149;28;20041;-79
2024/01/09 07:08:32;;;;;;;13.88;10.13;;;;;;;5.72;100.00;100063.19;4980923;28;20030;-78
2024/01/09 07:10:57;;;;;;;13.90;9.60;;;;;;;5.73;100.00;100067.50;4988423;28;20084;-78
2024/01/09 07:13:23;;;;;;;11.98;9.80;;;;;;;5.75;100.00;100070.88;4981314;28;20065;-78
2024/01/09 07:15:52;;;;;;;17.02;9.82;;;;;;;5.76;100.00;100075.16;4984054;28;20031;-78
2024/01/09 07:18:17;;;;;;;11.90;9.70;;;;;;;5.77;100.00;100079.47;4983365;28;20062;-77
2024/01/09 07:20:43;;;;;;;12.32;9.30;;;;;;;5.80;100.00;100081.88;4980783;28;20113;-77
2024/01/09 07:23:09;;;;;;;11.50;9.60;;;;;;;5.82;100.00;100087.88;4982773;28;20043;-78
2024/01/09 07:25:34;;;;;;;11.68;9.95;;;;;;;5.85;100.00;100086.81;4983822;28;20049;-77
2024/01/09 07:28:00;;;;;;;11.98;9.93;;;;;;;5.86;100.00;100089.34;4981484;28;20089;-78
2024/01/09 07:30:26;;;;;;;13.23;9.77;;;;;;;5.88;100.00;100087.50;4983258;28;20113;-77
2024/01/09 07:32:52;;;;;;;12.45;9.27;;;;;;;5.87;100.00;100096.28;4980549;28;20061;-79
2024/01/09 07:35:18;;;;;;;13.25;9.43;;;;;;;5.87;100.00;100103.28;4963465;28;20050;-77
2024/01/09 07:37:50;;;;;;;12.10;9.35;;;;;;;5.84;100.00;100109.53;4980780;28;20070;-78
2024/01/09 07:40:16;;;;;;;13.80;9.15;;;;;;;5.86;100.00;100105.06;4975090;28;20383;-78
2024/01/09 07:42:42;;;;;;;13.52;8.90;;;;;;;5.87;100.00;100109.38;4976019;28;20046;-77
2024/01/09 07:45:11;;;;;;;15.40;8.85;;;;;;;5.87;100.00;100111.13;4982001;28;20027;-78
2024/01/09 07:47:38;;;;;;;12.32;8.95;;;;;;;5.86;100.00;100115.53;4979634;28;20055;-79
2024/01/09 07:50:04;;;;;;;10.25;8.13;;;;;;;5.83;100.00;100120.97;4984492;28;20060;-77
2024/01/09 07:52:31;;;;;;;12.80;9.68;;;;;;;5.82;100.00;100127.16;4961745;28;20027;-77
2024/01/09 07:54:56;;;;;;;15.25;9.07;;;;;;;5.81;100.00;100122.84;4980254;28;20031;-78
2024/01/09 07:57:24;;;;;;;11.27;9.30;;;;;;;5.81;100.00;100138.56;4977837;28;20030;-78
2024/01/09 07:59:49;;;;;;;15.02;10.02;;;;;;;5.83;100.00;100135.84;4979753;28;20053;-78
2024/01/09 08:02:15;;;;;;;11.82;9.20;;;;;;;5.85;100.00;100145.28;4980976;28;20035;-78
2024/01/09 08:04:41;;;;;;;11.75;9.07;;;;;;;5.85;100.00;100155.75;4987897;28;20057;-77
2024/01/09 08:07:07;;;;;;;13.82;9.60;;;;;;;5.87;100.00;100159.16;4984017;28;20416;-78
2024/01/09 08:09:32;;;;;;;16.33;9.55;;;;;;;5.90;100.00;100165.97;4987008;28;20034;-77
2024/01/09 08:11:58;;;;;;;11.27;8.68;;;;;;;5.92;100.00;100167.56;4986632;28;20034;-77
2024/01/09 08:14:23;;;;;;;13.73;8.55;;;;;;;5.94;100.00;100180.56;4989305;28;20038;-76
2024/01/09 08:16:49;;;;;;;10.65;8.73;;;;;;;5.94;100.00;100181.41;4990836;28;20191;-77
2024/01/09 08:19:14;;;;;;;10.75;8.18;;;;;;;5.96;100.00;100184.75;4992010;28;20031;-77
2024/01/09 08:21:40;;;;;;;11.55;7.85;;;;;;;5.96;100.00;100184.75;4986611;28;20030;-78
2024/01/09 08:24:05;;;;;;;13.32;8.38;;;;;;;5.95;100.00;100188.28;4982940;28;20046;-78
2024/01/09 08:26:31;;;;;;;10.95;7.88;;;;;;;5.96;100.00;100189.97;4981106;28;20037;-76
2024/01/09 08:28:57;;;;;;;9.38;7.80;;;;;;;5.97;100.00;100186.44;4983392;28;20125;-76
2024/01/09 08:31:22;;;;;;;13.15;8.35;;;;;;;5.96;100.00;100192.59;4983656;28;20414;-77
2024/01/09 08:33:48;;;;;;;10.88;8.02;;;;;;;5.97;100.00;100202.16;4980174;28;20112;-77
2024/01/09 08:36:15;;;;;;;10.30;8.43;;;;;;;5.96;100.00;100203.09;4983564;28;20045;-78
2024/01/09 08:38:40;;;;;;;11.52;9.00;;;;;;;5.95;100.00;100204.00;4963519;28;20483;-78
2024/01/09 08:41:06;;;;;;;14.40;7.72;;;;;;;5.96;100.00;100202.25;4981703;28;20093;-77
2024/01/09 08:43:31;;;;;;;10.07;7.57;;;;;;;5.99;100.00;100205.53;4983850;28;20054;-77
2024/01/09 08:45:57;;;;;;;11.13;8.63;;;;;;;6.04;100.00;100208.69;4978083;28;20123;-76
2024/01/09 08:48:23;;;;;;;10.35;8.15;;;;;;;6.09;100.00;100205.75;4984696;28;20151;-76
2024/01/09 08:50:49;;;;;;;14.45;8.18;;;;;;;6.11;100.00;100209.97;4965332;28;20026;-77
2024/01/09 08:53:14;;;;;;;11.88;7.57;;;;;;;6.12;100.00;100216.06;4961736;28;20039;-75
2024/01/09 08:55:40;;;;;;;8.88;7.97;;;;;;;6.12;100.00;100210.81;4979605;28;20116;-76
2024/01/09 08:58:09;;;;;;;11.25;8.15;;;;;;;6.13;100.00;100218.56;4983830;28;20026;-75
2024/01/09 09:00:34;;;;;;;11.15;8.05;;;;;;;6.18;100.00;100221.72;4966142;28;20065;-75
2024/01/09 09:03:01;;;;;;;15.82;8.80;;;;;;;6.24;100.00;100224.91;4982349;28;20039;-75
2024/01/09 09:05:27;;;;;;;14.57;8.60;;;;;;;6.27;100.00;100224.69;4988249;28;20031;-75
2024/01/09 09:07:53;;;;;;;12.80;7.95;;;;;;;6.24;100.00;100231.00;4978771;28;20037;-73
2024/01/09 09:10:19;;;;;;;9.95;8.32;;;;;;;6.23;100.00;100233.72;4981533;28;20019;-73
2024/01/09 09:12:45;;;;;;;11.70;7.95;;;;;;;6.24;100.00;100231.00;4983230;28;20466;-75
2024/01/09 09:15:10;;;;;;;11.18;7.93;;;;;;;6.28;100.00;100231.63;4983889;28;20049;-75
2024/01/09 09:17:36;;;;;;;14.20;8.00;;;;;;;6.32;100.00;100238.34;4979019;28;20138;-76
2024/01/09 09:20:04;;;;;;;10.48;7.65;;;;;;;6.34;100.00;100242.56;4982806;28;20038;-77
2024/01/09 09:22:33;;;;;;;10.60;8.40;;;;;;;6.38;100.00;100238.78;4988933;28;20474;-75
2024/01/09 09:24:59;;;;;;;12.20;8.65;;;;;;;6.46;100.00;100240.94;4968986;28;20038;-75
2024/01/09 09:27:24;;;;;;;15.60;9.32;;;;;;;6.53;100.00;100250.91;4990641;28;20492;-76
2024/01/09 09:29:52;;;;;;;10.65;8.70;;;;;;;6.57;100.00;100243.69;4981271;28;20128;-78
2024/01/09 09:32:18;;;;;;;14.75;8.10;;;;;;;6.62;100.00;100253.88;4982020;28;20121;-76
2024/01/09 09:34:43;;;;;;;12.75;8.43;;;;;;;6.59;100.00;100252.28;4955086;28;20122;-75
2024/01/09 09:37:09;;;;;;;12.20;8.15;;;;;;;6.58;100.00;100255.84;4972280;23;20502;-77
2024/01/09 09:39:34;;;;;;;9.07;7.88;;;;;;;6.63;100.00;100253.78;4962219;28;20046;-78
2024/01/09 09:42:00;;;;;;;13.05;8.60;;;;;;;6.64;100.00;100257.22;4962657;28;20038;-77
2024/01/09 09:44:26;;;;;;;12.38;7.82;;;;;;;6.63;100.00;100264.25;4960109;28;20035;-78
2024/01/09 09:46:52;;;;;;;11.25;8.80;;;;;;;6.64;100.00;100260.69;4961138;28;20360;-76
2024/01/09 09:49:20;;;;;;;11.90;8.10;;;;;;;6.66;100.00;100258.78;4961079;28;20038;-78
2024/01/09 09:51:48;;;;;;;11.70;9.25;;;;;;;6.73;100.00;100259.22;4962683;28;20151;-78
2024/01/09 09:54:15;;;;;;;11.30;8.60;;;;;;;6.84;100.00;100257.59;4958730;28;20050;-76
2024/01/09 09:56:41;;;;;;;18.25;9.60;;;;;;;6.97;100.00;100258.44;4961472;28;20031;-77
2024/01/09 09:59:10;;;;;;;10.75;8.48;;;;;;;7.09;100.00;100258.56;4962959;28;20050;-76
2024/01/09 10:01:36;;;;;;;12.02;9.02;;;;;;;7.16;100.00;100257.22;4962482;28;20038;-77
2024/01/09 10:04:18;;;;;;;9.45;8.45;;;;;;;7.23;100.00;100256.69;4963514;28;20494;-77
2024/01/09 10:06:46;;;;;;;15.93;9.07;;;;;;;7.23;100.00;100248.81;4945167;28;20042;-77
2024/01/09 10:09:14;;;;;;;10.10;8.43;;;;;;;7.28;100.00;100257.22;4964447;28;20403;-77
2024/01/09 10:11:39;;;;;;;11.93;10.13;;;;;;;7.35;100.00;100257.66;4963564;28;20054;-77
2024/01/09 10:14:08;;;;;;;11.38;8.98;;;;;;;7.26;100.00;100258.25;4961680;28;20427;-77
2024/01/09 10:16:50;;;;;;;16.50;10.40;;;;;;;7.28;100.00;100261.63;4959972;28;20034;-77
2024/01/09 10:19:16;;;;;;;13.05;9.80;;;;;;;7.19;100.00;100257.00;4963498;28;20042;-79
2024/01/09 10:21:41;;;;;;;14.35;9.60;;;;;;;7.21;100.00;100255.13;4961515;28;20031;-77
2024/01/09 10:24:08;;;;;;;15.75;10.20;;;;;;;7.28;100.00;100254.59;4965510;28;20038;-76
2024/01/09 10:26:33;;;;;;;12.43;9.23;;;;;;;7.28;100.00;100245.88;4943273;28;20094;-78
2024/01/09 10:28:59;;;;;;;12.05;9.73;;;;;;;7.25;100.00;100246.06;4963900;28;20030;-77
2024/01/09 10:31:24;;;;;;;17.10;9.57;;;;;;;7.36;100.00;100246.22;4963514;28;20111;-77
2024/01/09 10:33:50;;;;;;;18.48;10.57;;;;;;;7.44;100.00;100246.50;4958466;28;20130;-78
2024/01/09 10:36:16;;;;;;;12.73;9.10;;;;;;;7.52;100.00;100244.19;4962968;28;20065;-78
2024/01/09 10:38:42;;;;;;;10.68;8.98;;;;;;;7.58;100.00;100249.03;4962416;28;20058;-77
2024/01/09 10:41:18;;;;;;;11.57;9.50;;;;;;;7.61;100.00;100251.41;4960465;28;20085;-76
2024/01/09 10:43:44;;;;;;;12.77;9.63;;;;;;;7.54;100.00;100246.72;4961838;28;20034;-77
2024/01/09 10:46:10;;;;;;;10.30;9.15;;;;;;;7.58;100.00;100254.28;4963572;28;20062;-78
2024/01/09 10:48:37;;;;;;;18.15;9.82;;;;;;;7.65;100.00;100241.56;4961637;28;20081;-76
2024/01/09 10:51:03;;;;;;;13.23;9.70;;;;;;;7.69;100.00;100245.63;4962315;28;20058;-76
2024/01/09 10:53:31;;;;;;;12.27;10.13;;;;;;;7.69;100.00;100241.22;4967306;28;20039;-78
2024/01/09 10:55:59;;;;;;;12.18;9.93;;;;;;;7.61;100.00;100243.53;4954700;28;20023;-76
2024/01/09 10:58:24;;;;;;;11.45;9.07;;;;;;;7.61;100.00;100248.78;4962776;28;20042;-77
2024/01/09 11:00:50;;;;;;;12.60;9.70;;;;;;;7.58;100.00;100246.41;4943682;28;20038;-76
2024/01/09 11:03:15;;;;;;;13.80;9.57;;;;;;;7.51;100.00;100255.63;4945306;28;20461;-78
2024/01/09 11:05:41;;;;;;;15.95;9.05;;;;;;;7.47;100.00;100254.19;4963192;28;20058;-76
2024/01/09 11:08:12;;;;;;;14.00;9.60;;;;;;;7.54;100.00;100250.16;4961171;28;20062;-77
2024/01/09 11:10:39;;;;;;;11.90;9.43;;;;;;;7.61;100.00;100243.53;4961845;28;20201;-77